Pavo, Georgia
Current Conditions -  °F | °C
As of 11:15 PM on Thursday 27 Nov 2014 (Local Time) from KMGR Reporting Station
Clear Clear  
Wind Chill: 38°   Ceiling: Unl
Heat Index: 43°   Visibility: 10mi
Dew Point: 32°   Wind: 8mph
Humidity: 66%   Direction: 350°N
Pressure: 30.39"   Gusts: NA
Location:  30.96°N, 83.74°W
Report Text: KMGR 280415Z AUTO 35007KT 10SM CLR 06/00 A3039 RMK AO2
Loading
Personal Weather Stations






























Interactive Weather Map New forecast layout! Learn more

10-Day Weather Forecast

Advertisements
Track Severe Weather on mobile